Time;durP1;ratioP1;P1;durP2;ratioP2;P2;SDS_P1;SDS_P2;PMS_P1;PMS_P2;Temp;Humidity;BMP_temperature;BMP_pressure;BME280_temperature;BME280_humidity;BME280_pressure;Samples;Min_cycle;Max_cycle;Signal;HPM_P1;HPM_P2
2023/03/25 00:00:05;;;;;;;;;;;25.30;33.90;;;;;;5120431;28;19990;-61
2023/03/25 00:02:33;;;;;;;;;;;25.20;33.90;;;;;;5127182;27;19957;-61
2023/03/25 00:05:02;;;;;;;;;;;25.10;33.90;;;;;;5117613;28;20062;-60
2023/03/25 00:07:28;;;;;;;;;;;25.00;33.90;;;;;;5119303;28;19960;-60
2023/03/25 00:09:57;;;;;;;;;;;25.00;34.80;;;;;;5123836;28;19950;-59
2023/03/25 00:12:26;;;;;;;;;;;25.00;34.20;;;;;;5123226;28;20007;-62
2023/03/25 00:14:57;;;;;;;;;;;24.90;34.70;;;;;;5100133;28;19965;-61
2023/03/25 00:17:27;;;;;;;;;;;24.70;34.40;;;;;;5119072;28;19948;-61
2023/03/25 00:19:54;;;;;;;;;;;24.70;35.30;;;;;;5099302;28;20399;-62
2023/03/25 00:22:20;;;;;;;;;;;24.80;34.70;;;;;;5102900;28;19975;-60
2023/03/25 00:24:47;;;;;;;;;;;24.70;35.50;;;;;;5123566;28;19968;-62
2023/03/25 00:27:17;;;;;;;;;;;24.60;35.50;;;;;;5119892;28;19971;-60
2023/03/25 00:29:44;;;;;;;;;;;24.60;35.60;;;;;;5100147;28;19958;-61
2023/03/25 00:32:10;;;;;;;;;;;24.40;35.60;;;;;;5118530;28;20421;-59
2023/03/25 00:34:45;;;;;;;;;;;24.40;36.00;;;;;;5100781;28;19965;-60
2023/03/25 00:37:26;;;;;;;;;;;24.40;35.90;;;;;;5116562;28;19954;-60
2023/03/25 00:39:52;;;;;;;;;;;24.30;36.20;;;;;;5113409;28;20072;-58
2023/03/25 00:42:24;;;;;;;;;;;24.30;36.40;;;;;;5115527;28;20016;-59
2023/03/25 00:44:51;;;;;;;;;;;24.20;36.30;;;;;;5127083;28;19989;-63
2023/03/25 00:47:19;;;;;;;;;;;23.90;37.70;;;;;;5119965;28;19955;-61
2023/03/25 00:49:45;;;;;;;;;;;23.90;37.20;;;;;;5122769;28;19954;-60
2023/03/25 00:52:12;;;;;;;;;;;23.60;37.30;;;;;;5119522;28;19955;-61
2023/03/25 00:54:38;;;;;;;;;;;23.50;37.50;;;;;;5116613;28;20001;-61
2023/03/25 00:57:04;;;;;;;;;;;23.50;37.90;;;;;;5120585;28;19977;-60
2023/03/25 00:59:31;;;;;;;;;;;23.30;38.50;;;;;;5122940;28;19958;-61
2023/03/25 01:02:01;;;;;;;;;;;23.30;38.50;;;;;;5117142;28;19998;-58
2023/03/25 01:04:28;;;;;;;;;;;23.20;38.50;;;;;;5115696;28;20442;-61
2023/03/25 01:06:54;;;;;;;;;;;23.20;39.30;;;;;;5118890;28;19971;-62
2023/03/25 01:09:20;;;;;;;;;;;23.30;40.10;;;;;;5116005;28;20420;-60
2023/03/25 01:11:47;;;;;;;;;;;23.10;39.40;;;;;;5115851;28;20060;-61
2023/03/25 01:14:15;;;;;;;;;;;23.00;39.40;;;;;;5102153;27;19955;-61
2023/03/25 01:16:41;;;;;;;;;;;22.80;40.30;;;;;;5119610;27;20000;-61
2023/03/25 01:19:08;;;;;;;;;;;22.70;40.80;;;;;;5121217;27;19955;-62
2023/03/25 01:21:35;;;;;;;;;;;22.70;39.80;;;;;;5120789;27;20349;-61
2023/03/25 01:24:03;;;;;;;;;;;22.60;40.00;;;;;;5112261;27;20041;-59
2023/03/25 01:26:29;;;;;;;;;;;22.40;40.50;;;;;;5123729;27;19962;-62
2023/03/25 01:28:55;;;;;;;;;;;22.30;40.70;;;;;;5112983;27;19987;-62
2023/03/25 01:31:29;;;;;;;;;;;22.30;41.00;;;;;;5125790;27;19955;-60
2023/03/25 01:33:56;;;;;;;;;;;22.20;40.80;;;;;;5119925;27;19980;-61
2023/03/25 01:36:23;;;;;;;;;;;22.10;40.80;;;;;;5112258;27;20453;-62
2023/03/25 01:38:49;;;;;;;;;;;22.00;41.10;;;;;;5123209;27;19997;-61
2023/03/25 01:41:18;;;;;;;;;;;21.90;41.50;;;;;;5126799;27;19966;-60
2023/03/25 01:44:03;;;;;;;;;;;21.80;41.70;;;;;;5124824;27;19954;-62
2023/03/25 01:46:29;;;;;;;;;;;21.60;41.80;;;;;;5120723;27;20057;-60
2023/03/25 01:48:55;;;;;;;;;;;21.70;42.30;;;;;;5118282;27;19962;-61
2023/03/25 01:51:26;;;;;;;;;;;21.60;42.30;;;;;;5123625;27;20333;-59
2023/03/25 01:53:52;;;;;;;;;;;21.50;42.20;;;;;;5125972;27;19962;-59
2023/03/25 01:56:24;;;;;;;;;;;21.40;42.50;;;;;;5122095;27;19977;-58
2023/03/25 01:58:51;;;;;;;;;;;21.20;42.50;;;;;;5122744;27;20496;-60
2023/03/25 02:01:20;;;;;;;;;;;21.20;42.80;;;;;;5125178;27;19961;-60
2023/03/25 02:03:51;;;;;;;;;;;21.10;42.70;;;;;;5120968;27;19951;-60
2023/03/25 02:06:21;;;;;;;;;;;21.10;42.80;;;;;;5121479;27;19955;-61
2023/03/25 02:08:49;;;;;;;;;;;21.00;43.00;;;;;;5128017;27;20129;-58
2023/03/25 02:11:16;;;;;;;;;;;20.90;42.90;;;;;;5129074;27;19957;-60
2023/03/25 02:13:42;;;;;;;;;;;20.90;43.10;;;;;;5110434;27;19966;-59
2023/03/25 02:16:08;;;;;;;;;;;20.90;42.90;;;;;;5118188;27;19957;-59
2023/03/25 02:18:45;;;;;;;;;;;20.80;43.20;;;;;;5117285;27;20123;-57
2023/03/25 02:21:23;;;;;;;;;;;20.70;43.50;;;;;;5119365;27;20033;-59
2023/03/25 02:23:56;;;;;;;;;;;20.70;43.60;;;;;;5120601;27;20103;-63
2023/03/25 02:26:22;;;;;;;;;;;20.60;43.70;;;;;;5121601;27;20049;-60
2023/03/25 02:29:04;;;;;;;;;;;20.60;43.80;;;;;;5121807;27;19955;-59
2023/03/25 02:31:31;;;;;;;;;;;20.50;43.90;;;;;;5123501;27;20045;-60
2023/03/25 02:34:00;;;;;;;;;;;20.50;44.00;;;;;;5124049;27;19952;-60
2023/03/25 02:36:40;;;;;;;;;;;20.40;44.10;;;;;;5120049;27;19954;-61
2023/03/25 02:39:17;;;;;;;;;;;20.30;44.40;;;;;;5127551;27;19982;-64
2023/03/25 02:41:52;;;;;;;;;;;20.30;44.10;;;;;;5128587;27;20014;-60
2023/03/25 02:44:18;;;;;;;;;;;20.20;44.50;;;;;;5111975;27;19982;-63
2023/03/25 02:46:48;;;;;;;;;;;20.10;44.40;;;;;;5118931;27;20157;-61
2023/03/25 02:49:18;;;;;;;;;;;20.10;44.60;;;;;;5120769;27;20417;-61
2023/03/25 02:51:48;;;;;;;;;;;20.00;45.00;;;;;;5125683;27;20230;-61
2023/03/25 02:54:15;;;;;;;;;;;20.00;45.00;;;;;;5122460;27;19966;-61
2023/03/25 02:56:43;;;;;;;;;;;20.00;45.10;;;;;;5125858;27;19954;-62
2023/03/25 02:59:13;;;;;;;;;;;19.90;45.30;;;;;;5123988;27;19959;-61
2023/03/25 03:01:39;;;;;;;;;;;19.80;45.40;;;;;;5119648;27;19966;-60
2023/03/25 03:04:05;;;;;;;;;;;19.70;45.70;;;;;;5123646;27;20437;-60
2023/03/25 03:06:36;;;;;;;;;;;19.70;45.80;;;;;;5120351;27;19959;-62
2023/03/25 03:09:24;;;;;;;;;;;19.70;46.00;;;;;;5121659;27;19957;-60
2023/03/25 03:11:53;;;;;;;;;;;19.60;45.90;;;;;;5123636;27;20069;-62
2023/03/25 03:14:25;;;;;;;;;;;19.50;46.10;;;;;;5123348;27;19958;-61
2023/03/25 03:16:57;;;;;;;;;;;19.50;46.20;;;;;;5127505;27;20396;-61
2023/03/25 03:19:23;;;;;;;;;;;19.40;46.40;;;;;;5123076;27;19971;-61
2023/03/25 03:22:07;;;;;;;;;;;19.30;46.40;;;;;;5117950;27;19963;-62
2023/03/25 03:24:39;;;;;;;;;;;19.30;46.40;;;;;;5120342;27;20414;-60
2023/03/25 03:27:08;;;;;;;;;;;19.30;46.50;;;;;;5124369;27;20053;-61
2023/03/25 03:29:37;;;;;;;;;;;19.20;46.70;;;;;;5117941;27;20007;-62
2023/03/25 03:32:07;;;;;;;;;;;19.20;46.70;;;;;;5124463;27;19962;-61
2023/03/25 03:34:42;;;;;;;;;;;19.20;46.70;;;;;;5119621;27;19959;-61
2023/03/25 03:37:09;;;;;;;;;;;19.10;47.30;;;;;;5123457;27;19954;-60
2023/03/25 03:39:36;;;;;;;;;;;19.10;47.20;;;;;;5124772;27;19985;-62
2023/03/25 03:42:22;;;;;;;;;;;19.00;47.10;;;;;;5117258;27;19970;-62
2023/03/25 03:44:52;;;;;;;;;;;19.00;47.20;;;;;;5113545;27;20449;-62
2023/03/25 03:47:23;;;;;;;;;;;19.00;47.40;;;;;;5118806;27;19955;-63
2023/03/25 03:50:06;;;;;;;;;;;19.00;47.50;;;;;;5118445;27;20000;-66
2023/03/25 03:52:32;;;;;;;;;;;18.90;47.60;;;;;;5123104;27;20003;-62
2023/03/25 03:55:00;;;;;;;;;;;18.80;47.60;;;;;;5120876;27;19995;-60
2023/03/25 03:57:32;;;;;;;;;;;18.80;47.80;;;;;;5122354;27;20430;-60
2023/03/25 04:00:05;;;;;;;;;;;18.80;47.90;;;;;;5120927;27;19950;-63
2023/03/25 04:02:46;;;;;;;;;;;18.70;48.40;;;;;;5106907;28;19970;-61
2023/03/25 04:05:14;;;;;;;;;;;18.60;48.40;;;;;;5117236;28;20073;-67
2023/03/25 04:07:43;;;;;;;;;;;18.60;48.00;;;;;;5106423;28;20262;-61
2023/03/25 04:10:22;;;;;;;;;;;18.60;48.00;;;;;;5123641;28;19959;-62
2023/03/25 04:12:50;;;;;;;;;;;18.50;48.20;;;;;;5108962;28;20025;-63
2023/03/25 04:15:16;;;;;;;;;;;18.40;48.00;;;;;;5124403;28;19971;-62
2023/03/25 04:17:43;;;;;;;;;;;18.40;47.90;;;;;;5121755;28;19955;-66
2023/03/25 04:20:22;;;;;;;;;;;18.40;48.00;;;;;;5120547;28;20444;-61
2023/03/25 04:22:50;;;;;;;;;;;18.30;47.70;;;;;;5121449;28;20432;-62
2023/03/25 04:25:16;;;;;;;;;;;18.30;47.80;;;;;;5118285;28;19979;-63
2023/03/25 04:27:44;;;;;;;;;;;18.20;47.80;;;;;;5119373;28;19978;-62
2023/03/25 04:30:10;;;;;;;;;;;18.20;47.20;;;;;;5116097;28;19970;-62
2023/03/25 04:32:37;;;;;;;;;;;18.20;46.90;;;;;;5122031;28;20478;-63
2023/03/25 04:35:03;;;;;;;;;;;18.20;47.00;;;;;;5121445;28;19979;-63
2023/03/25 04:37:32;;;;;;;;;;;18.20;46.60;;;;;;5119534;28;19962;-64
2023/03/25 04:39:59;;;;;;;;;;;18.10;46.40;;;;;;5119155;28;19994;-65
2023/03/25 04:42:31;;;;;;;;;;;18.10;46.50;;;;;;5118746;28;19958;-63
2023/03/25 04:45:00;;;;;;;;;;;18.10;45.80;;;;;;5121789;28;19975;-64
2023/03/25 04:47:26;;;;;;;;;;;18.00;45.90;;;;;;5116873;28;19955;-64
2023/03/25 04:49:52;;;;;;;;;;;18.00;45.60;;;;;;5120035;27;19963;-63
2023/03/25 04:52:18;;;;;;;;;;;18.00;45.70;;;;;;5125286;27;19970;-63
2023/03/25 04:54:45;;;;;;;;;;;17.90;45.40;;;;;;5124169;27;19950;-65
2023/03/25 04:57:11;;;;;;;;;;;17.90;45.30;;;;;;5104502;27;20025;-65
2023/03/25 04:59:37;;;;;;;;;;;17.90;45.20;;;;;;5124830;27;19955;-62
2023/03/25 05:02:06;;;;;;;;;;;17.90;45.40;;;;;;5120919;27;19962;-62
2023/03/25 05:04:33;;;;;;;;;;;17.80;45.40;;;;;;5119821;27;19982;-62
2023/03/25 05:06:59;;;;;;;;;;;17.80;45.40;;;;;;5120376;27;19981;-63
2023/03/25 05:09:25;;;;;;;;;;;17.70;45.20;;;;;;5122153;27;20076;-60
2023/03/25 05:11:52;;;;;;;;;;;17.70;45.10;;;;;;5128245;27;20449;-61
2023/03/25 05:14:19;;;;;;;;;;;17.70;45.10;;;;;;5123877;27;19955;-64
2023/03/25 05:16:46;;;;;;;;;;;17.60;45.10;;;;;;5120110;27;19959;-60
2023/03/25 05:19:13;;;;;;;;;;;17.50;45.10;;;;;;5117842;27;19959;-61
2023/03/25 05:21:40;;;;;;;;;;;17.50;44.80;;;;;;5123013;27;20012;-59
2023/03/25 05:24:09;;;;;;;;;;;17.40;44.90;;;;;;5120933;27;20049;-59
2023/03/25 05:26:38;;;;;;;;;;;17.40;44.60;;;;;;5122235;27;19963;-60
2023/03/25 05:29:05;;;;;;;;;;;17.40;44.50;;;;;;5121399;27;20031;-60
2023/03/25 05:31:31;;;;;;;;;;;17.30;45.00;;;;;;5120595;27;20007;-59
2023/03/25 05:33:57;;;;;;;;;;;17.30;44.50;;;;;;5121590;27;20053;-63
2023/03/25 05:36:24;;;;;;;;;;;17.30;44.60;;;;;;5118654;27;19959;-59
2023/03/25 05:38:53;;;;;;;;;;;17.30;44.50;;;;;;5121620;27;20005;-60
2023/03/25 05:41:21;;;;;;;;;;;17.30;44.30;;;;;;5124855;27;19963;-61
2023/03/25 05:43:49;;;;;;;;;;;17.30;44.20;;;;;;5124179;27;20112;-62
2023/03/25 05:46:16;;;;;;;;;;;17.20;44.20;;;;;;5119232;27;20457;-63
2023/03/25 05:48:42;;;;;;;;;;;17.20;44.20;;;;;;5120083;27;19952;-62
2023/03/25 05:51:15;;;;;;;;;;;17.10;44.20;;;;;;5116394;27;20432;-59
2023/03/25 05:53:42;;;;;;;;;;;17.20;44.30;;;;;;5121218;27;19956;-61
2023/03/25 05:56:09;;;;;;;;;;;17.10;44.00;;;;;;5123565;27;19966;-59
2023/03/25 05:58:35;;;;;;;;;;;17.10;44.00;;;;;;5127334;27;19966;-61
2023/03/25 06:01:04;;;;;;;;;;;17.10;44.20;;;;;;5118367;27;19983;-62
2023/03/25 06:03:33;;;;;;;;;;;17.10;44.00;;;;;;5119690;27;19951;-57
2023/03/25 06:06:00;;;;;;;;;;;17.10;43.80;;;;;;5121119;27;20465;-59
2023/03/25 06:08:28;;;;;;;;;;;17.10;43.90;;;;;;5123764;27;20378;-62
2023/03/25 06:10:57;;;;;;;;;;;17.10;44.20;;;;;;5122517;27;20410;-61
2023/03/25 06:13:23;;;;;;;;;;;17.00;43.70;;;;;;5121806;27;20033;-64
2023/03/25 06:15:54;;;;;;;;;;;17.00;43.60;;;;;;5117168;27;20124;-61
2023/03/25 06:18:24;;;;;;;;;;;17.00;43.80;;;;;;5122986;27;19955;-60
2023/03/25 06:20:52;;;;;;;;;;;17.00;44.30;;;;;;5127732;27;19955;-59
2023/03/25 06:23:21;;;;;;;;;;;16.90;43.50;;;;;;5125217;27;19986;-61
2023/03/25 06:25:49;;;;;;;;;;;16.80;43.90;;;;;;5124258;27;20019;-59
2023/03/25 06:28:17;;;;;;;;;;;16.80;44.10;;;;;;5127184;27;20314;-61
2023/03/25 06:30:44;;;;;;;;;;;16.80;44.30;;;;;;5122278;27;19958;-60
2023/03/25 06:33:12;;;;;;;;;;;16.80;43.80;;;;;;5123596;27;20410;-61
2023/03/25 06:35:42;;;;;;;;;;;16.70;43.90;;;;;;5116002;27;19957;-58
2023/03/25 06:38:09;;;;;;;;;;;16.70;44.10;;;;;;5115205;27;20471;-59
2023/03/25 06:40:39;;;;;;;;;;;16.70;44.20;;;;;;5118930;27;20889;-62
2023/03/25 06:43:05;;;;;;;;;;;16.70;44.00;;;;;;5119102;27;19951;-58
2023/03/25 06:45:31;;;;;;;;;;;16.70;44.40;;;;;;5122252;27;19975;-59
2023/03/25 06:47:58;;;;;;;;;;;16.70;45.10;;;;;;5125926;27;20415;-62
2023/03/25 06:50:24;;;;;;;;;;;16.70;44.50;;;;;;5124659;27;20041;-61
2023/03/25 06:52:50;;;;;;;;;;;16.60;44.90;;;;;;5123133;27;19985;-56
2023/03/25 06:55:16;;;;;;;;;;;16.60;45.10;;;;;;5122361;27;19964;-60
2023/03/25 06:57:42;;;;;;;;;;;16.50;45.10;;;;;;5123584;27;19959;-61
2023/03/25 07:00:10;;;;;;;;;;;16.50;45.30;;;;;;5123066;27;20353;-57
2023/03/25 07:02:37;;;;;;;;;;;16.50;45.20;;;;;;5123888;27;20512;-60
2023/03/25 07:05:03;;;;;;;;;;;16.30;45.50;;;;;;5121387;27;20352;-59
2023/03/25 07:07:29;;;;;;;;;;;16.30;46.50;;;;;;5122847;27;19974;-60
2023/03/25 07:09:55;;;;;;;;;;;16.20;46.10;;;;;;5123413;27;20504;-60
2023/03/25 07:12:22;;;;;;;;;;;16.20;45.70;;;;;;5125269;27;20474;-61
2023/03/25 07:14:51;;;;;;;;;;;16.20;45.70;;;;;;5120861;27;19970;-63
2023/03/25 07:17:17;;;;;;;;;;;16.20;46.20;;;;;;5122732;27;19955;-60
2023/03/25 07:19:43;;;;;;;;;;;16.10;46.50;;;;;;5124410;27;20002;-60
2023/03/25 07:22:09;;;;;;;;;;;16.10;46.70;;;;;;5125230;27;21339;-61
2023/03/25 07:24:35;;;;;;;;;;;16.10;48.10;;;;;;5126844;27;19971;-61
2023/03/25 07:27:01;;;;;;;;;;;16.10;47.80;;;;;;5127828;27;20440;-60
2023/03/25 07:29:27;;;;;;;;;;;16.00;47.90;;;;;;5128228;27;20403;-59
2023/03/25 07:31:53;;;;;;;;;;;16.00;46.80;;;;;;5124644;27;20624;-59
2023/03/25 07:34:20;;;;;;;;;;;16.00;46.80;;;;;;5122611;27;19975;-60
2023/03/25 07:36:46;;;;;;;;;;;15.90;47.00;;;;;;5123710;27;20441;-60
2023/03/25 07:39:12;;;;;;;;;;;16.00;47.70;;;;;;5121823;27;20024;-61
2023/03/25 07:41:38;;;;;;;;;;;16.00;47.90;;;;;;5125111;27;20081;-61
2023/03/25 07:44:04;;;;;;;;;;;16.00;48.40;;;;;;5122417;27;19999;-59
2023/03/25 07:46:30;;;;;;;;;;;15.90;49.10;;;;;;5122794;27;20061;-59
2023/03/25 07:48:56;;;;;;;;;;;15.80;48.70;;;;;;5125610;27;19954;-61
2023/03/25 07:51:22;;;;;;;;;;;15.70;49.30;;;;;;5122317;27;19955;-60
2023/03/25 07:53:48;;;;;;;;;;;15.40;49.30;;;;;;5120152;27;19955;-59
2023/03/25 07:56:14;;;;;;;;;;;15.40;49.40;;;;;;5123025;27;19962;-59
2023/03/25 07:58:40;;;;;;;;;;;15.40;50.00;;;;;;5102676;27;19955;-59
2023/03/25 08:01:07;;;;;;;;;;;15.50;49.80;;;;;;5120952;27;19954;-60
2023/03/25 08:03:33;;;;;;;;;;;15.50;49.40;;;;;;5122798;27;19998;-60
2023/03/25 08:06:01;;;;;;;;;;;15.50;49.90;;;;;;5123141;28;20405;-59
2023/03/25 08:08:28;;;;;;;;;;;15.50;49.50;;;;;;5123854;28;19998;-61
2023/03/25 08:10:55;;;;;;;;;;;15.50;49.60;;;;;;5124992;28;19958;-60
2023/03/25 08:13:21;;;;;;;;;;;15.50;49.90;;;;;;5124144;28;20041;-60
2023/03/25 08:15:47;;;;;;;;;;;15.50;50.30;;;;;;5124125;28;19955;-60
2023/03/25 08:18:13;;;;;;;;;;;15.40;50.20;;;;;;5125370;28;19969;-59
2023/03/25 08:20:40;;;;;;;;;;;15.30;50.60;;;;;;5120109;28;19994;-60
2023/03/25 08:23:09;;;;;;;;;;;15.30;51.00;;;;;;5123375;28;19955;-60
2023/03/25 08:25:39;;;;;;;;;;;15.30;51.40;;;;;;5125164;27;20083;-60
2023/03/25 08:28:05;;;;;;;;;;;15.10;52.10;;;;;;5126643;27;20406;-59
2023/03/25 08:30:37;;;;;;;;;;;15.20;52.60;;;;;;5129315;27;20008;-59
2023/03/25 08:33:06;;;;;;;;;;;15.20;53.00;;;;;;5124271;27;19962;-60
2023/03/25 08:35:33;;;;;;;;;;;15.10;53.70;;;;;;5124842;27;20015;-59
2023/03/25 08:38:00;;;;;;;;;;;14.90;54.10;;;;;;5126609;27;19963;-60
2023/03/25 08:40:27;;;;;;;;;;;14.90;54.60;;;;;;5126755;27;20462;-59
2023/03/25 08:42:53;;;;;;;;;;;14.90;54.60;;;;;;5127272;27;19963;-61
2023/03/25 08:45:19;;;;;;;;;;;14.90;54.60;;;;;;5129907;27;20443;-59
2023/03/25 08:47:45;;;;;;;;;;;14.90;54.50;;;;;;5128630;27;20399;-59
2023/03/25 08:50:11;;;;;;;;;;;14.90;54.60;;;;;;5125279;27;20444;-59
2023/03/25 08:52:38;;;;;;;;;;;14.80;54.60;;;;;;5126863;27;19974;-59
2023/03/25 08:55:06;;;;;;;;;;;14.70;54.90;;;;;;5124878;27;20321;-57
2023/03/25 08:57:36;;;;;;;;;;;14.70;55.20;;;;;;5127391;27;20057;-58
2023/03/25 09:00:11;;;;;;;;;;;14.70;55.30;;;;;;5123157;27;20050;-60
2023/03/25 09:02:37;;;;;;;;;;;14.60;55.70;;;;;;5123263;27;20063;-60
2023/03/25 09:05:03;;;;;;;;;;;14.60;55.70;;;;;;5125759;27;20015;-58
2023/03/25 09:07:29;;;;;;;;;;;14.60;56.00;;;;;;5124844;27;20427;-61
2023/03/25 09:09:55;;;;;;;;;;;14.60;55.90;;;;;;5123250;27;20049;-61
2023/03/25 09:12:22;;;;;;;;;;;14.60;55.90;;;;;;5111246;27;20009;-59
2023/03/25 09:14:48;;;;;;;;;;;14.50;56.20;;;;;;5125158;27;20007;-60
2023/03/25 09:17:14;;;;;;;;;;;14.50;56.30;;;;;;5125651;27;19960;-59
2023/03/25 09:19:40;;;;;;;;;;;14.50;56.20;;;;;;5127789;27;20356;-59
2023/03/25 09:22:06;;;;;;;;;;;14.40;56.20;;;;;;5126568;27;20077;-60
2023/03/25 09:24:32;;;;;;;;;;;14.40;56.30;;;;;;5125273;27;20438;-59
2023/03/25 09:27:00;;;;;;;;;;;14.40;56.50;;;;;;5127799;27;19964;-65
2023/03/25 09:29:26;;;;;;;;;;;14.40;56.70;;;;;;5125395;27;20425;-62
2023/03/25 09:31:52;;;;;;;;;;;14.40;56.40;;;;;;5126749;27;19955;-61
2023/03/25 09:34:18;;;;;;;;;;;14.40;56.50;;;;;;5126999;27;19997;-59
2023/03/25 09:36:44;;;;;;;;;;;14.40;56.40;;;;;;5126855;27;20013;-59
2023/03/25 09:39:11;;;;;;;;;;;14.40;56.60;;;;;;5126089;27;19981;-60
2023/03/25 09:41:45;;;;;;;;;;;14.40;56.50;;;;;;5125963;27;20008;-60
2023/03/25 09:44:29;;;;;;;;;;;14.40;56.70;;;;;;5127949;27;19986;-58
2023/03/25 09:46:57;;;;;;;;;;;14.40;56.80;;;;;;5128471;27;19955;-61
2023/03/25 09:49:30;;;;;;;;;;;14.40;57.10;;;;;;5124437;27;20058;-58
2023/03/25 09:51:56;;;;;;;;;;;14.30;57.20;;;;;;5126924;27;19952;-60
2023/03/25 09:54:22;;;;;;;;;;;14.30;57.30;;;;;;5126277;27;19963;-59
2023/03/25 09:56:49;;;;;;;;;;;14.30;57.70;;;;;;5123305;27;19971;-59
2023/03/25 09:59:22;;;;;;;;;;;14.20;57.50;;;;;;5127609;27;19951;-59
2023/03/25 10:01:59;;;;;;;;;;;14.20;57.90;;;;;;5124704;27;19956;-59
2023/03/25 10:04:31;;;;;;;;;;;14.30;57.90;;;;;;5123108;27;19976;-60
2023/03/25 10:07:05;;;;;;;;;;;14.30;58.00;;;;;;5124471;27;19956;-60
2023/03/25 10:10:00;;;;;;;;;;;14.20;58.20;;;;;;5125870;27;20055;-60
2023/03/25 10:12:26;;;;;;;;;;;14.20;58.40;;;;;;5124930;27;19963;-58
2023/03/25 10:15:12;;;;;;;;;;;14.20;58.60;;;;;;5123602;27;19964;-59
2023/03/25 10:17:44;;;;;;;;;;;14.20;59.10;;;;;;5123621;27;20001;-59
2023/03/25 10:20:11;;;;;;;;;;;14.10;58.80;;;;;;5123658;27;20404;-59
2023/03/25 10:22:43;;;;;;;;;;;14.00;59.00;;;;;;5122718;27;20005;-61
2023/03/25 10:25:13;;;;;;;;;;;14.00;59.30;;;;;;5124478;27;20022;-58
2023/03/25 10:27:43;;;;;;;;;;;14.00;59.50;;;;;;5126159;27;20476;-60
2023/03/25 10:30:10;;;;;;;;;;;14.00;59.60;;;;;;5125538;27;19964;-57
2023/03/25 10:32:36;;;;;;;;;;;13.90;59.70;;;;;;5124404;27;20005;-58
2023/03/25 10:35:04;;;;;;;;;;;13.90;59.80;;;;;;5123133;27;20007;-60
2023/03/25 10:37:34;;;;;;;;;;;13.80;60.30;;;;;;5125335;27;20011;-58
2023/03/25 10:40:11;;;;;;;;;;;13.80;60.80;;;;;;5125293;27;20398;-59
2023/03/25 10:43:04;;;;;;;;;;;13.80;60.80;;;;;;5118406;27;19955;-59
2023/03/25 10:45:30;;;;;;;;;;;13.80;60.90;;;;;;5096551;27;20514;-60
2023/03/25 10:48:01;;;;;;;;;;;13.80;61.30;;;;;;5125607;27;19956;-58
2023/03/25 10:50:27;;;;;;;;;;;13.80;61.30;;;;;;5125666;27;20014;-60
2023/03/25 10:52:55;;;;;;;;;;;13.80;61.80;;;;;;5121994;27;20455;-60
2023/03/25 10:55:26;;;;;;;;;;;13.80;62.60;;;;;;5122053;27;19980;-58
2023/03/25 10:57:52;;;;;;;;;;;13.80;61.80;;;;;;5122134;27;20070;-57
2023/03/25 11:00:19;;;;;;;;;;;13.70;62.10;;;;;;5125705;27;19955;-59
2023/03/25 11:02:49;;;;;;;;;;;13.60;62.40;;;;;;5123267;27;20010;-59
2023/03/25 11:05:17;;;;;;;;;;;13.60;63.10;;;;;;5126232;27;19971;-58
2023/03/25 11:07:54;;;;;;;;;;;13.70;63.20;;;;;;5122796;27;19977;-59
2023/03/25 11:10:28;;;;;;;;;;;13.50;63.40;;;;;;5122425;27;20471;-57
2023/03/25 11:12:57;;;;;;;;;;;13.50;64.10;;;;;;5125056;27;19959;-58
2023/03/25 11:15:43;;;;;;;;;;;13.50;64.20;;;;;;5125372;27;20296;-60
2023/03/25 11:18:09;;;;;;;;;;;13.50;64.40;;;;;;5123190;27;19971;-59
2023/03/25 11:20:37;;;;;;;;;;;13.50;65.00;;;;;;5125454;27;19966;-59
2023/03/25 11:23:21;;;;;;;;;;;13.50;64.70;;;;;;5124895;27;19955;-59
2023/03/25 11:25:47;;;;;;;;;;;13.40;64.90;;;;;;5123912;27;20024;-59
2023/03/25 11:28:20;;;;;;;;;;;13.50;65.60;;;;;;5122089;27;19976;-59
2023/03/25 11:31:05;;;;;;;;;;;13.50;65.50;;;;;;5124384;27;20403;-61
2023/03/25 11:33:31;;;;;;;;;;;13.40;65.50;;;;;;5121294;27;19959;-60
2023/03/25 11:36:09;;;;;;;;;;;13.40;65.70;;;;;;5099583;27;19956;-58
2023/03/25 11:38:37;;;;;;;;;;;13.40;66.00;;;;;;5122404;27;20024;-59
2023/03/25 11:41:04;;;;;;;;;;;13.40;66.00;;;;;;5122631;27;20734;-59
2023/03/25 11:43:35;;;;;;;;;;;13.40;66.50;;;;;;5123102;27;20337;-60
2023/03/25 11:46:13;;;;;;;;;;;13.30;66.30;;;;;;5121824;27;21358;-59
2023/03/25 11:48:40;;;;;;;;;;;13.30;66.20;;;;;;5122565;27;19956;-60
2023/03/25 11:51:14;;;;;;;;;;;13.20;66.30;;;;;;5122535;27;19963;-60
2023/03/25 11:53:45;;;;;;;;;;;13.20;66.60;;;;;;5118221;27;19964;-58
2023/03/25 11:56:19;;;;;;;;;;;13.20;66.60;;;;;;5120826;27;19956;-59
2023/03/25 11:58:45;;;;;;;;;;;13.20;66.90;;;;;;5122790;27;20021;-61
2023/03/25 12:01:20;;;;;;;;;;;13.20;66.80;;;;;;5122941;27;19956;-60
2023/03/25 12:03:46;;;;;;;;;;;13.20;67.30;;;;;;5121791;27;20417;-58
2023/03/25 12:06:17;;;;;;;;;;;13.10;67.30;;;;;;5123454;28;20462;-60
2023/03/25 12:09:04;;;;;;;;;;;13.10;67.50;;;;;;5123903;28;20331;-60
2023/03/25 12:11:42;;;;;;;;;;;13.10;67.60;;;;;;5124868;28;19963;-57
2023/03/25 12:14:17;;;;;;;;;;;13.00;67.90;;;;;;5125060;28;20422;-60
2023/03/25 12:16:43;;;;;;;;;;;13.00;68.10;;;;;;5123949;28;20395;-59
2023/03/25 12:19:16;;;;;;;;;;;13.00;68.40;;;;;;5118974;28;19956;-60
2023/03/25 12:21:42;;;;;;;;;;;12.90;68.20;;;;;;5121637;28;20319;-59
2023/03/25 12:24:10;;;;;;;;;;;13.00;68.80;;;;;;5122622;28;20037;-59
2023/03/25 12:26:55;;;;;;;;;;;12.90;68.40;;;;;;5121924;28;19976;-58
2023/03/25 12:29:42;;;;;;;;;;;12.80;68.80;;;;;;5123499;28;19963;-59
2023/03/25 12:32:29;;;;;;;;;;;12.80;70.40;;;;;;5121169;28;19955;-59
2023/03/25 12:35:13;;;;;;;;;;;12.80;70.00;;;;;;5102167;28;19956;-58
2023/03/25 12:37:48;;;;;;;;;;;12.80;70.60;;;;;;5112329;28;20005;-59
2023/03/25 12:40:29;;;;;;;;;;;12.70;70.30;;;;;;5122454;28;19978;-59
2023/03/25 12:43:01;;;;;;;;;;;12.70;70.80;;;;;;5121336;28;19956;-60
2023/03/25 12:45:27;;;;;;;;;;;12.60;71.50;;;;;;5120804;28;19987;-57
2023/03/25 12:48:12;;;;;;;;;;;12.60;71.30;;;;;;5120297;28;20346;-58
2023/03/25 12:50:38;;;;;;;;;;;12.60;71.40;;;;;;5120039;28;19972;-58
2023/03/25 12:53:22;;;;;;;;;;;12.60;71.40;;;;;;5120673;28;20055;-58
2023/03/25 12:55:50;;;;;;;;;;;12.70;71.80;;;;;;5114828;28;19981;-58
2023/03/25 12:58:34;;;;;;;;;;;12.60;71.70;;;;;;5122810;28;20001;-59
2023/03/25 13:01:18;;;;;;;;;;;12.60;71.80;;;;;;5123259;28;19960;-60
2023/03/25 13:03:56;;;;;;;;;;;12.60;71.90;;;;;;5122167;28;19995;-62
2023/03/25 13:06:25;;;;;;;;;;;12.50;71.80;;;;;;5122230;28;19971;-60
2023/03/25 13:08:57;;;;;;;;;;;12.50;71.90;;;;;;5123049;28;19956;-60
2023/03/25 13:11:31;;;;;;;;;;;12.40;72.10;;;;;;5122059;27;19956;-59
2023/03/25 13:14:00;;;;;;;;;;;12.40;72.00;;;;;;5124426;27;20706;-62
2023/03/25 13:16:28;;;;;;;;;;;12.40;72.30;;;;;;5126844;27;19993;-60
2023/03/25 13:18:56;;;;;;;;;;;12.40;72.30;;;;;;5122592;27;20338;-63
2023/03/25 13:21:27;;;;;;;;;;;12.40;72.40;;;;;;5125603;27;19956;-60
2023/03/25 13:23:56;;;;;;;;;;;12.40;72.30;;;;;;5126658;27;19984;-58
2023/03/25 13:26:23;;;;;;;;;;;12.40;72.70;;;;;;5125548;27;20072;-59
2023/03/25 13:28:54;;;;;;;;;;;12.40;72.60;;;;;;5125244;27;20422;-60
2023/03/25 13:31:41;;;;;;;;;;;12.40;72.60;;;;;;5124267;27;19956;-59
2023/03/25 13:34:07;;;;;;;;;;;12.40;72.70;;;;;;5122039;27;19961;-59
2023/03/25 13:36:41;;;;;;;;;;;12.30;72.40;;;;;;5125251;27;19960;-57
2023/03/25 13:39:26;;;;;;;;;;;12.20;72.90;;;;;;5125458;27;19974;-59
2023/03/25 13:42:18;;;;;;;;;;;12.20;72.90;;;;;;5126669;27;19960;-59
2023/03/25 13:44:45;;;;;;;;;;;12.20;73.20;;;;;;5095602;27;19981;-59
2023/03/25 13:47:11;;;;;;;;;;;12.20;73.60;;;;;;5128137;27;19972;-59
2023/03/25 13:49:43;;;;;;;;;;;12.10;73.80;;;;;;5103056;27;19955;-59
2023/03/25 13:52:09;;;;;;;;;;;12.10;73.70;;;;;;5125289;27;19956;-60
2023/03/25 13:54:41;;;;;;;;;;;12.10;73.80;;;;;;5126135;27;20024;-59
2023/03/25 13:57:25;;;;;;;;;;;12.10;75.10;;;;;;5125492;27;20103;-61
2023/03/25 14:00:10;;;;;;;;;;;12.10;74.70;;;;;;5125650;27;19960;-60
2023/03/25 14:02:37;;;;;;;;;;;12.10;74.80;;;;;;5122588;27;19956;-58
2023/03/25 14:05:08;;;;;;;;;;;12.20;74.00;;;;;;5124594;27;19986;-59
2023/03/25 14:07:53;;;;;;;;;;;12.20;73.90;;;;;;5126343;27;19960;-60
2023/03/25 14:10:36;;;;;;;;;;;12.30;74.20;;;;;;5123060;27;20001;-58
2023/03/25 14:13:08;;;;;;;;;;;12.30;74.10;;;;;;5123945;27;20438;-59
2023/03/25 14:15:36;;;;;;;;;;;12.30;73.90;;;;;;5118797;27;20435;-59
2023/03/25 14:18:03;;;;;;;;;;;12.40;74.30;;;;;;5125734;27;20493;-60
2023/03/25 14:20:32;;;;;;;;;;;12.40;74.30;;;;;;5126182;27;20334;-59
2023/03/25 14:23:01;;;;;;;;;;;12.40;73.70;;;;;;5121198;27;20001;-59
2023/03/25 14:25:48;;;;;;;;;;;12.40;73.40;;;;;;5125401;27;19982;-60
2023/03/25 14:28:17;;;;;;;;;;;12.50;74.20;;;;;;5128644;27;20110;-59
2023/03/25 14:30:44;;;;;;;;;;;12.60;72.40;;;;;;5116212;27;19955;-58